createdAt,value
2023-04-23T00:00:25.034Z,0.00
2023-04-23T00:01:25.005Z,0.00
2023-04-23T00:02:25.020Z,0.00
2023-04-23T00:03:25.246Z,0.00
2023-04-23T00:04:24.961Z,0.00
2023-04-23T00:05:24.881Z,0.00
2023-04-23T00:06:24.828Z,0.00
2023-04-23T00:07:24.788Z,0.00
2023-04-23T00:08:24.762Z,0.00
2023-04-23T00:09:24.729Z,0.00
2023-04-23T00:10:24.692Z,0.00
2023-04-23T00:11:24.652Z,0.00
2023-04-23T00:12:24.621Z,0.00
2023-04-23T00:13:24.586Z,0.00
2023-04-23T00:14:24.550Z,0.00
2023-04-23T00:15:24.518Z,0.00
2023-04-23T00:16:24.722Z,0.00
2023-04-23T00:17:24.490Z,0.00
2023-04-23T00:18:24.420Z,0.00
2023-04-23T00:19:24.377Z,0.00
2023-04-23T00:20:24.345Z,0.00
2023-04-23T00:21:24.345Z,0.00
2023-04-23T00:22:24.277Z,0.00
2023-04-23T00:23:24.238Z,0.00
2023-04-23T00:24:24.322Z,0.00
2023-04-23T00:25:24.171Z,0.00
2023-04-23T00:26:24.136Z,0.00
2023-04-23T00:27:24.103Z,0.00
2023-04-23T00:28:24.068Z,0.00
2023-04-23T00:29:24.030Z,0.00
2023-04-23T00:30:24.017Z,0.00
2023-04-23T00:31:23.980Z,0.00
2023-04-23T00:32:23.963Z,0.00
2023-04-23T00:33:23.896Z,0.00
2023-04-23T00:34:23.878Z,0.00
2023-04-23T00:35:23.826Z,0.00
2023-04-23T00:36:23.799Z,0.00
2023-04-23T00:37:23.759Z,0.00
2023-04-23T00:38:23.726Z,0.00
2023-04-23T00:39:23.688Z,0.00
2023-04-23T00:40:23.732Z,0.00
2023-04-23T00:41:23.621Z,0.00
2023-04-23T00:42:23.582Z,0.00
2023-04-23T00:43:23.551Z,0.00
2023-04-23T00:44:23.513Z,0.00
2023-04-23T00:45:23.492Z,0.00
2023-04-23T00:46:23.501Z,0.00
2023-04-23T00:47:23.424Z,0.00
2023-04-23T00:48:23.399Z,0.00
2023-04-23T00:49:23.346Z,0.00
2023-04-23T00:50:23.310Z,0.00
2023-04-23T00:51:23.281Z,0.00
2023-04-23T00:52:23.237Z,0.00
2023-04-23T00:53:23.208Z,0.00
2023-04-23T00:54:23.172Z,0.00
2023-04-23T00:55:23.140Z,0.00
2023-04-23T00:56:23.111Z,0.00
2023-04-23T00:57:23.068Z,0.00
2023-04-23T00:58:23.032Z,0.00
2023-04-23T00:59:22.998Z,0.00
2023-04-23T01:00:22.966Z,0.00
2023-04-23T01:01:22.957Z,0.00
2023-04-23T01:02:23.010Z,0.00
2023-04-23T01:03:22.983Z,0.00
2023-04-23T01:04:22.939Z,0.00
2023-04-23T01:05:22.788Z,0.00
2023-04-23T01:06:22.753Z,0.00
2023-04-23T01:07:22.788Z,0.00
2023-04-23T01:08:22.705Z,0.00
2023-04-23T01:09:22.690Z,0.00
2023-04-23T01:10:22.638Z,0.00
2023-04-23T01:11:22.586Z,0.00
2023-04-23T01:12:22.608Z,0.00
2023-04-23T01:13:22.585Z,0.00
2023-04-23T01:14:22.490Z,0.00
2023-04-23T01:15:22.460Z,0.00
2023-04-23T01:16:22.442Z,0.00
2023-04-23T01:17:22.425Z,0.00
2023-04-23T01:18:22.340Z,0.00
2023-04-23T01:19:22.313Z,0.00
2023-04-23T01:20:22.277Z,0.00
2023-04-23T01:21:22.235Z,0.00
2023-04-23T01:22:22.201Z,0.00
2023-04-23T01:23:22.187Z,0.00
2023-04-23T01:24:22.129Z,0.00
2023-04-23T01:25:22.099Z,0.00
2023-04-23T01:26:22.064Z,0.00
2023-04-23T01:27:22.032Z,0.00
2023-04-23T01:28:21.991Z,0.00
2023-04-23T01:29:21.961Z,0.00
2023-04-23T01:30:21.930Z,0.00
2023-04-23T01:31:21.914Z,0.00
2023-04-23T01:32:21.901Z,0.00
2023-04-23T01:33:21.817Z,0.00
2023-04-23T01:34:21.789Z,0.00
2023-04-23T01:35:21.752Z,0.00
2023-04-23T01:36:21.713Z,0.00
2023-04-23T01:37:21.683Z,0.00
2023-04-23T01:38:21.644Z,0.00
2023-04-23T01:39:21.608Z,0.00
2023-04-23T01:40:21.577Z,0.00
2023-04-23T01:41:21.542Z,0.00
2023-04-23T01:42:21.509Z,0.00
2023-04-23T01:43:21.482Z,0.00
2023-04-23T01:44:21.436Z,0.00
2023-04-23T01:45:21.410Z,0.00
2023-04-23T01:46:21.391Z,0.00
2023-04-23T01:47:21.397Z,0.00
2023-04-23T01:48:21.291Z,0.00
2023-04-23T01:49:21.265Z,0.00
2023-04-23T01:50:21.232Z,0.00
2023-04-23T01:51:21.186Z,0.00
2023-04-23T01:52:21.173Z,0.00
2023-04-23T01:53:21.119Z,0.00
2023-04-23T01:54:21.085Z,0.00
2023-04-23T01:55:21.053Z,0.00
2023-04-23T01:56:21.015Z,0.00
2023-04-23T01:57:20.992Z,0.00
2023-04-23T01:58:20.943Z,0.00
2023-04-23T01:59:20.903Z,0.00
2023-04-23T02:00:20.900Z,0.00
2023-04-23T02:01:20.887Z,0.00
2023-04-23T02:02:20.813Z,0.00
2023-04-23T02:03:20.879Z,0.00
2023-04-23T02:04:20.823Z,0.00
2023-04-23T02:05:20.740Z,0.00
2023-04-23T02:06:20.662Z,0.00
2023-04-23T02:07:20.623Z,0.00
2023-04-23T02:08:20.598Z,0.00
2023-04-23T02:09:20.559Z,0.00
2023-04-23T02:10:20.540Z,0.00
2023-04-23T02:11:20.493Z,0.00
2023-04-23T02:12:20.452Z,0.00
2023-04-23T02:13:20.425Z,0.00
2023-04-23T02:14:20.379Z,0.00
2023-04-23T02:15:20.346Z,0.00
2023-04-23T02:16:20.397Z,0.00
2023-04-23T02:17:20.302Z,0.00
2023-04-23T02:18:20.246Z,0.00
2023-04-23T02:19:20.208Z,0.00
2023-04-23T02:20:20.176Z,0.00
2023-04-23T02:21:20.155Z,0.00
2023-04-23T02:22:20.096Z,0.00
2023-04-23T02:23:20.072Z,0.00
2023-04-23T02:24:20.049Z,0.00
2023-04-23T02:25:19.997Z,0.00
2023-04-23T02:26:19.959Z,0.00
2023-04-23T02:27:19.921Z,0.00
2023-04-23T02:28:19.894Z,0.00
2023-04-23T02:29:19.852Z,0.00
2023-04-23T02:30:19.837Z,0.00
2023-04-23T02:31:19.804Z,0.00
2023-04-23T02:32:19.784Z,0.00
2023-04-23T02:33:19.726Z,0.00
2023-04-23T02:34:19.677Z,0.00
2023-04-23T02:35:19.647Z,0.00
2023-04-23T02:36:19.644Z,0.00
2023-04-23T02:37:19.586Z,0.00
2023-04-23T02:38:19.537Z,0.00
2023-04-23T02:39:19.505Z,0.00
2023-04-23T02:40:19.470Z,0.00
2023-04-23T02:41:19.437Z,0.00
2023-04-23T02:42:19.399Z,0.00
2023-04-23T02:43:19.363Z,0.00
2023-04-23T02:44:19.340Z,0.00
2023-04-23T02:45:19.299Z,0.00
2023-04-23T02:46:19.286Z,0.00
2023-04-23T02:47:19.245Z,0.00
2023-04-23T02:48:19.187Z,0.00
2023-04-23T02:49:19.151Z,0.00
2023-04-23T02:50:19.118Z,0.00
2023-04-23T02:51:19.076Z,0.00
2023-04-23T02:52:19.059Z,0.00
2023-04-23T02:53:19.016Z,0.00
2023-04-23T02:54:18.974Z,0.00
2023-04-23T02:55:18.936Z,0.00
2023-04-23T02:56:18.907Z,0.00
2023-04-23T02:57:18.863Z,0.00
2023-04-23T02:58:18.829Z,0.00
2023-04-23T02:59:18.802Z,0.00
2023-04-23T03:00:18.765Z,0.00
2023-04-23T03:01:18.742Z,0.00
2023-04-23T03:02:18.770Z,0.00
2023-04-23T03:03:18.808Z,0.00
2023-04-23T03:04:18.728Z,0.00
2023-04-23T03:05:18.582Z,0.00
2023-04-23T03:06:18.559Z,0.00
2023-04-23T03:07:18.523Z,0.00
2023-04-23T03:08:18.476Z,0.00
2023-04-23T03:09:18.456Z,0.00
2023-04-23T03:10:18.417Z,0.00
2023-04-23T03:11:18.366Z,0.00
2023-04-23T03:12:18.343Z,0.00
2023-04-23T03:13:18.295Z,0.00
2023-04-23T03:14:18.288Z,0.00
2023-04-23T03:15:18.223Z,0.00
2023-04-23T03:16:18.285Z,0.00
2023-04-23T03:17:18.256Z,0.00
2023-04-23T03:18:18.201Z,0.00
2023-04-23T03:19:18.088Z,0.00
2023-04-23T03:20:18.087Z,0.00
2023-04-23T03:21:18.022Z,0.00
2023-04-23T03:22:17.980Z,0.00
2023-04-23T03:23:17.943Z,0.00
2023-04-23T03:24:17.908Z,0.00
2023-04-23T03:25:17.875Z,0.00
2023-04-23T03:26:17.867Z,0.00
2023-04-23T03:27:17.802Z,0.00
2023-04-23T03:28:17.768Z,0.00
2023-04-23T03:29:17.739Z,0.00
2023-04-23T03:30:17.695Z,0.00
2023-04-23T03:31:17.743Z,0.00
2023-04-23T03:32:17.638Z,0.00
2023-04-23T03:33:17.603Z,0.00
2023-04-23T03:34:17.561Z,0.00
2023-04-23T03:35:17.525Z,0.00
2023-04-23T03:36:17.494Z,0.00
2023-04-23T03:37:17.454Z,0.00
2023-04-23T03:38:17.422Z,0.00
2023-04-23T03:39:17.389Z,0.00
2023-04-23T03:40:17.368Z,0.00
2023-04-23T03:41:17.310Z,0.00
2023-04-23T03:42:17.275Z,0.00
2023-04-23T03:43:17.251Z,0.00
2023-04-23T03:44:17.203Z,0.00
2023-04-23T03:45:17.168Z,0.00
2023-04-23T03:46:17.200Z,0.00
2023-04-23T03:47:17.098Z,0.00
2023-04-23T03:48:17.064Z,0.00
2023-04-23T03:49:17.031Z,0.00
2023-04-23T03:50:16.989Z,0.00
2023-04-23T03:51:16.962Z,0.00
2023-04-23T03:52:16.924Z,0.00
2023-04-23T03:53:16.886Z,0.00
2023-04-23T03:54:16.853Z,0.00
2023-04-23T03:55:16.858Z,0.00
2023-04-23T03:56:16.819Z,0.00
2023-04-23T03:57:16.758Z,0.00
2023-04-23T03:58:16.714Z,0.00
2023-04-23T03:59:16.680Z,0.00
2023-04-23T04:00:16.646Z,0.00
2023-04-23T04:01:16.620Z,0.00
2023-04-23T04:02:16.652Z,0.00
2023-04-23T04:03:16.672Z,0.00
2023-04-23T04:04:16.830Z,0.00
2023-04-23T04:05:16.516Z,0.00
2023-04-23T04:06:16.440Z,0.00
2023-04-23T04:07:16.400Z,0.00
2023-04-23T04:08:16.367Z,0.00
2023-04-23T04:09:16.330Z,0.00
2023-04-23T04:10:16.296Z,0.00
2023-04-23T04:11:16.266Z,0.00
2023-04-23T04:12:16.222Z,0.00
2023-04-23T04:13:16.192Z,0.00
2023-04-23T04:14:16.157Z,0.00
2023-04-23T04:15:16.125Z,0.00
2023-04-23T04:16:16.117Z,0.00
2023-04-23T04:17:16.123Z,0.00
2023-04-23T04:18:16.030Z,0.00
2023-04-23T04:19:15.979Z,0.00
2023-04-23T04:20:15.962Z,0.00
2023-04-23T04:21:15.929Z,0.00
2023-04-23T04:22:15.877Z,0.00
2023-04-23T04:23:15.840Z,0.00
2023-04-23T04:24:15.805Z,0.00
2023-04-23T04:25:15.774Z,0.00
2023-04-23T04:26:15.729Z,0.00
2023-04-23T04:27:15.703Z,0.00
2023-04-23T04:28:15.670Z,0.00
2023-04-23T04:29:15.634Z,0.00
2023-04-23T04:30:15.589Z,0.00
2023-04-23T04:31:15.574Z,0.00
2023-04-23T04:32:15.521Z,0.00
2023-04-23T04:33:15.497Z,0.00
2023-04-23T04:34:15.455Z,0.00
2023-04-23T04:35:15.431Z,0.00
2023-04-23T04:36:15.376Z,0.00
2023-04-23T04:37:15.359Z,0.00
2023-04-23T04:38:15.310Z,0.00
2023-04-23T04:39:15.283Z,0.00
2023-04-23T04:40:15.272Z,0.00
2023-04-23T04:41:15.206Z,0.00
2023-04-23T04:42:15.172Z,0.00
2023-04-23T04:43:15.152Z,0.00
2023-04-23T04:44:15.101Z,0.00
2023-04-23T04:45:15.091Z,0.00
2023-04-23T04:46:15.048Z,0.00
2023-04-23T04:47:14.992Z,0.00
2023-04-23T04:48:15.006Z,0.00
2023-04-23T04:49:14.921Z,0.00
2023-04-23T04:50:14.897Z,0.00
2023-04-23T04:51:14.856Z,0.00
2023-04-23T04:52:14.819Z,0.00
2023-04-23T04:53:14.781Z,0.00
2023-04-23T04:54:14.750Z,0.00
2023-04-23T04:55:14.713Z,5.63
2023-04-23T04:56:14.680Z,5.63
2023-04-23T04:57:14.644Z,5.63
2023-04-23T04:58:14.607Z,5.63
2023-04-23T04:59:14.576Z,5.63
2023-04-23T05:00:14.569Z,5.63
2023-04-23T05:01:14.547Z,5.63
2023-04-23T05:02:14.537Z,5.63
2023-04-23T05:03:14.777Z,5.63
2023-04-23T05:04:14.493Z,5.63
2023-04-23T05:05:14.370Z,5.63
2023-04-23T05:06:14.333Z,5.63
2023-04-23T05:07:14.296Z,5.63
2023-04-23T05:08:14.260Z,5.63
2023-04-23T05:09:14.230Z,5.63
2023-04-23T05:10:14.195Z,5.63
2023-04-23T05:11:14.154Z,5.63
2023-04-23T05:12:14.132Z,5.63
2023-04-23T05:13:14.087Z,5.63
2023-04-23T05:14:14.051Z,5.63
2023-04-23T05:15:14.014Z,5.63
2023-04-23T05:16:14.020Z,5.63
2023-04-23T05:17:13.947Z,5.63
2023-04-23T05:18:13.913Z,5.63
2023-04-23T05:19:13.874Z,5.63
2023-04-23T05:20:13.856Z,5.63
2023-04-23T05:21:13.810Z,5.63
2023-04-23T05:22:13.772Z,11.25
2023-04-23T05:23:13.737Z,11.25
2023-04-23T05:24:13.707Z,11.25
2023-04-23T05:25:13.670Z,11.25
2023-04-23T05:26:13.639Z,11.25
2023-04-23T05:27:13.598Z,11.25
2023-04-23T05:28:13.566Z,11.25
2023-04-23T05:29:13.533Z,11.25
2023-04-23T05:30:13.511Z,11.25
2023-04-23T05:31:13.472Z,11.25
2023-04-23T05:32:13.465Z,11.25
2023-04-23T05:33:13.390Z,11.25
2023-04-23T05:34:13.352Z,11.25
2023-04-23T05:35:13.318Z,11.25
2023-04-23T05:36:13.300Z,11.25
2023-04-23T05:37:13.247Z,11.25
2023-04-23T05:38:13.238Z,11.25
2023-04-23T05:39:13.181Z,11.25
2023-04-23T05:40:13.154Z,11.25
2023-04-23T05:41:13.108Z,11.25
2023-04-23T05:42:13.076Z,11.25
2023-04-23T05:43:13.043Z,11.25
2023-04-23T05:44:13.015Z,11.25
2023-04-23T05:45:12.980Z,11.25
2023-04-23T05:46:12.967Z,11.25
2023-04-23T05:47:12.913Z,16.88
2023-04-23T05:48:12.859Z,16.88
2023-04-23T05:49:12.834Z,16.88
2023-04-23T05:50:12.792Z,16.88
2023-04-23T05:51:12.759Z,16.88
2023-04-23T05:52:12.725Z,16.88
2023-04-23T05:53:12.695Z,16.88
2023-04-23T05:54:12.678Z,16.88
2023-04-23T05:55:12.629Z,16.88
2023-04-23T05:56:12.590Z,16.88
2023-04-23T05:57:12.561Z,16.88
2023-04-23T05:58:12.519Z,16.88
2023-04-23T05:59:12.488Z,16.88
2023-04-23T06:00:12.460Z,16.88
2023-04-23T06:01:12.413Z,22.50
2023-04-23T06:02:12.403Z,22.50
2023-04-23T06:03:12.425Z,22.50
2023-04-23T06:04:12.512Z,22.50
2023-04-23T06:05:12.400Z,22.50
2023-04-23T06:06:12.240Z,22.50
2023-04-23T06:07:12.252Z,22.50
2023-04-23T06:08:12.174Z,22.50
2023-04-23T06:09:12.149Z,22.50
2023-04-23T06:10:12.114Z,22.50
2023-04-23T06:11:12.070Z,22.50
2023-04-23T06:12:12.044Z,28.13
2023-04-23T06:13:12.031Z,28.13
2023-04-23T06:14:11.967Z,28.13
2023-04-23T06:15:11.929Z,28.13
2023-04-23T06:16:11.982Z,28.13
2023-04-23T06:17:11.869Z,28.13
2023-04-23T06:18:11.878Z,28.13
2023-04-23T06:19:11.808Z,28.13
2023-04-23T06:20:12.012Z,28.13
2023-04-23T06:21:11.751Z,28.13
2023-04-23T06:22:11.697Z,28.13
2023-04-23T06:23:11.657Z,28.13
2023-04-23T06:24:11.627Z,28.13
2023-04-23T06:25:11.588Z,28.13
2023-04-23T06:26:11.577Z,28.13
2023-04-23T06:27:11.534Z,28.13
2023-04-23T06:28:11.491Z,28.13
2023-04-23T06:29:11.463Z,28.13
2023-04-23T06:30:11.425Z,28.13
2023-04-23T06:31:11.424Z,28.13
2023-04-23T06:32:11.358Z,28.13
2023-04-23T06:33:11.322Z,28.13
2023-04-23T06:34:11.287Z,28.13
2023-04-23T06:35:11.260Z,28.13
2023-04-23T06:36:11.228Z,28.13
2023-04-23T06:37:11.188Z,28.13
2023-04-23T06:38:11.151Z,28.13
2023-04-23T06:39:11.116Z,28.13
2023-04-23T06:40:11.118Z,28.13
2023-04-23T06:41:11.048Z,28.13
2023-04-23T06:42:11.023Z,28.13
2023-04-23T06:43:10.979Z,33.75
2023-04-23T06:44:10.945Z,33.75
2023-04-23T06:45:10.932Z,33.75
2023-04-23T06:46:10.886Z,33.75
2023-04-23T06:47:10.894Z,39.38
2023-04-23T06:48:10.860Z,39.38
2023-04-23T06:49:10.784Z,39.38
2023-04-23T06:50:10.754Z,39.38
2023-04-23T06:51:10.974Z,39.38
2023-04-23T06:52:10.678Z,39.38
2023-04-23T06:53:10.673Z,39.38
2023-04-23T06:54:10.607Z,39.38
2023-04-23T06:55:10.575Z,39.38
2023-04-23T06:56:10.540Z,45.00
2023-04-23T06:57:10.506Z,45.00
2023-04-23T06:58:10.477Z,45.00
2023-04-23T06:59:10.438Z,45.00
2023-04-23T07:00:10.411Z,45.00
2023-04-23T07:01:10.397Z,45.00
2023-04-23T07:02:10.382Z,50.63
2023-04-23T07:03:10.511Z,50.63
2023-04-23T07:04:10.360Z,50.63
2023-04-23T07:05:10.249Z,50.63
2023-04-23T07:06:10.220Z,50.63
2023-04-23T07:07:10.186Z,50.63
2023-04-23T07:08:10.151Z,50.63
2023-04-23T07:09:10.128Z,50.63
2023-04-23T07:10:10.104Z,50.63
2023-04-23T07:11:10.058Z,50.63
2023-04-23T07:12:10.027Z,50.63
2023-04-23T07:13:09.992Z,50.63
2023-04-23T07:14:09.956Z,50.63
2023-04-23T07:15:09.964Z,56.25
2023-04-23T07:16:09.940Z,56.25
2023-04-23T07:17:09.892Z,56.25
2023-04-23T07:18:09.834Z,50.63
2023-04-23T07:19:09.802Z,50.63
2023-04-23T07:20:09.798Z,50.63
2023-04-23T07:21:09.735Z,56.25
2023-04-23T07:22:09.697Z,56.25
2023-04-23T07:23:09.666Z,56.25
2023-04-23T07:24:09.645Z,56.25
2023-04-23T07:25:09.597Z,56.25
2023-04-23T07:26:09.569Z,56.25
2023-04-23T07:27:09.528Z,56.25
2023-04-23T07:28:09.504Z,61.88
2023-04-23T07:29:09.466Z,61.88
2023-04-23T07:30:09.447Z,61.88
2023-04-23T07:31:09.413Z,61.88
2023-04-23T07:32:09.433Z,61.88
2023-04-23T07:33:09.345Z,61.88
2023-04-23T07:34:09.308Z,61.88
2023-04-23T07:35:09.270Z,61.88
2023-04-23T07:36:09.238Z,61.88
2023-04-23T07:37:09.210Z,61.88
2023-04-23T07:38:09.173Z,61.88
2023-04-23T07:39:09.143Z,56.25
2023-04-23T07:40:09.107Z,56.25
2023-04-23T07:41:09.084Z,56.25
2023-04-23T07:42:09.051Z,56.25
2023-04-23T07:43:09.016Z,50.63
2023-04-23T07:44:08.985Z,50.63
2023-04-23T07:45:08.948Z,50.63
2023-04-23T07:46:08.933Z,45.00
2023-04-23T07:47:08.887Z,45.00
2023-04-23T07:48:08.853Z,50.63
2023-04-23T07:49:08.822Z,50.63
2023-04-23T07:50:08.785Z,56.25
2023-04-23T07:51:08.748Z,61.88
2023-04-23T07:52:08.722Z,61.88
2023-04-23T07:53:08.686Z,67.50
2023-04-23T07:54:08.659Z,67.50
2023-04-23T07:55:08.650Z,67.50
2023-04-23T07:56:08.585Z,61.88
2023-04-23T07:57:08.549Z,61.88
2023-04-23T07:58:08.535Z,61.88
2023-04-23T07:59:08.488Z,61.88
2023-04-23T08:00:08.457Z,56.25
2023-04-23T08:01:08.424Z,56.25
2023-04-23T08:02:08.443Z,56.25
2023-04-23T08:03:08.513Z,56.25
2023-04-23T08:04:08.526Z,50.63
2023-04-23T08:05:08.483Z,50.63
2023-04-23T08:06:08.257Z,50.63
2023-04-23T08:07:08.232Z,45.00
2023-04-23T08:08:08.237Z,45.00
2023-04-23T08:09:08.170Z,45.00
2023-04-23T08:10:08.135Z,45.00
2023-04-23T08:11:08.097Z,45.00
2023-04-23T08:12:08.082Z,45.00
2023-04-23T08:13:08.040Z,45.00
2023-04-23T08:14:08.008Z,45.00
2023-04-23T08:15:08.028Z,45.00
2023-04-23T08:16:07.972Z,39.38
2023-04-23T08:17:07.908Z,39.38
2023-04-23T08:18:07.870Z,45.00
2023-04-23T08:19:07.872Z,45.00
2023-04-23T08:20:07.804Z,45.00
2023-04-23T08:21:07.780Z,45.00
2023-04-23T08:22:07.750Z,39.38
2023-04-23T08:23:07.706Z,33.75
2023-04-23T08:24:07.680Z,33.75
2023-04-23T08:25:07.769Z,28.13
2023-04-23T08:26:07.618Z,28.13
2023-04-23T08:27:07.596Z,28.13
2023-04-23T08:28:07.554Z,33.75
2023-04-23T08:29:09.064Z,28.13
2023-04-23T08:30:07.582Z,33.75
2023-04-23T08:31:22.792Z,33.75
2023-04-23T08:32:07.468Z,39.38
2023-04-23T08:33:07.478Z,39.38
2023-04-23T08:34:07.364Z,39.38
2023-04-23T08:35:07.356Z,39.38
2023-04-23T08:36:07.294Z,45.00
2023-04-23T08:37:11.672Z,45.00
2023-04-23T08:38:07.237Z,45.00
2023-04-23T08:39:07.186Z,50.63
2023-04-23T08:40:07.160Z,50.63
2023-04-23T08:41:07.124Z,50.63
2023-04-23T08:42:07.099Z,50.63
2023-04-23T08:43:07.063Z,56.25
2023-04-23T08:44:07.029Z,56.25
2023-04-23T08:45:07.006Z,56.25
2023-04-23T08:46:06.997Z,56.25
2023-04-23T08:47:06.936Z,56.25
2023-04-23T08:48:07.431Z,61.88
2023-04-23T08:49:06.865Z,67.50
2023-04-23T08:50:06.838Z,67.50
2023-04-23T08:51:06.802Z,67.50
2023-04-23T08:52:06.781Z,61.88
2023-04-23T08:53:06.741Z,67.50
2023-04-23T08:54:06.711Z,67.50
2023-04-23T08:55:06.689Z,73.13
2023-04-23T08:56:06.661Z,78.75
2023-04-23T08:57:06.615Z,73.13
2023-04-23T08:58:06.590Z,73.13
2023-04-23T08:59:06.553Z,73.13
2023-04-23T09:00:06.529Z,78.75
2023-04-23T09:01:06.524Z,84.38
2023-04-23T09:02:06.551Z,90.00
2023-04-23T09:03:06.656Z,90.00
2023-04-23T09:04:06.437Z,90.00
2023-04-23T09:05:06.357Z,90.00
2023-04-23T09:06:06.329Z,95.63
2023-04-23T09:07:06.290Z,95.63
2023-04-23T09:08:06.262Z,95.63
2023-04-23T09:09:06.238Z,90.00
2023-04-23T09:10:06.197Z,90.00
2023-04-23T09:11:06.160Z,95.63
2023-04-23T09:12:06.133Z,90.00
2023-04-23T09:13:06.099Z,90.00
2023-04-23T09:14:06.077Z,95.63
2023-04-23T09:15:06.037Z,95.63
2023-04-23T09:16:06.078Z,95.63
2023-04-23T09:17:05.984Z,90.00
2023-04-23T09:18:05.969Z,84.38
2023-04-23T09:19:05.910Z,90.00
2023-04-23T09:20:05.880Z,90.00
2023-04-23T09:21:05.847Z,90.00
2023-04-23T09:22:05.818Z,90.00
2023-04-23T09:23:05.790Z,90.00
2023-04-23T09:24:05.757Z,95.63
2023-04-23T09:25:05.721Z,95.63
2023-04-23T09:26:05.692Z,101.25
2023-04-23T09:27:05.672Z,95.63
2023-04-23T09:28:05.635Z,101.25
2023-04-23T09:29:05.598Z,101.25
2023-04-23T09:30:05.571Z,101.25
2023-04-23T09:31:05.556Z,101.25
2023-04-23T09:32:05.577Z,101.25
2023-04-23T09:33:05.494Z,106.88
2023-04-23T09:34:05.497Z,106.88
2023-04-23T09:35:05.421Z,106.88
2023-04-23T09:36:05.388Z,106.88
2023-04-23T09:37:05.345Z,106.88
2023-04-23T09:38:05.316Z,106.88
2023-04-23T09:39:05.283Z,112.50
2023-04-23T09:40:05.252Z,112.50
2023-04-23T09:41:05.239Z,112.50
2023-04-23T09:42:05.217Z,112.50
2023-04-23T09:43:05.157Z,112.50
2023-04-23T09:44:05.134Z,112.50
2023-04-23T09:45:05.100Z,118.13
2023-04-23T09:46:05.102Z,118.13
2023-04-23T09:47:05.039Z,118.13
2023-04-23T09:48:05.041Z,118.13
2023-04-23T09:49:04.977Z,118.13
2023-04-23T09:50:04.942Z,112.50
2023-04-23T09:51:04.909Z,112.50
2023-04-23T09:52:04.886Z,112.50
2023-04-23T09:53:04.860Z,112.50
2023-04-23T09:54:04.830Z,112.50
2023-04-23T09:55:04.789Z,112.50
2023-04-23T09:56:04.752Z,112.50
2023-04-23T09:57:04.721Z,112.50
2023-04-23T09:58:04.703Z,118.13
2023-04-23T09:59:04.660Z,118.13
2023-04-23T10:00:14.239Z,118.13
2023-04-23T10:01:04.629Z,118.13
2023-04-23T10:02:04.570Z,118.13
2023-04-23T10:03:04.782Z,112.50
2023-04-23T10:04:04.605Z,112.50
2023-04-23T10:05:21.759Z,112.50
2023-04-23T10:06:04.581Z,112.50
2023-04-23T10:07:17.896Z,106.88
2023-04-23T10:08:04.386Z,106.88
2023-04-23T10:09:04.353Z,106.88
2023-04-23T10:10:04.324Z,101.25
2023-04-23T10:11:19.959Z,95.63
2023-04-23T10:12:04.285Z,95.63
2023-04-23T10:13:04.237Z,95.63
2023-04-23T10:14:04.198Z,90.00
2023-04-23T10:15:04.179Z,84.38
2023-04-23T10:16:18.086Z,73.13
2023-04-23T10:17:04.243Z,61.88
2023-04-23T10:18:04.117Z,56.25
2023-04-23T10:19:04.055Z,50.63
2023-04-23T10:20:04.020Z,50.63
2023-04-23T10:21:03.986Z,50.63
2023-04-23T10:22:18.452Z,50.63
2023-04-23T10:23:03.917Z,45.00
2023-04-23T10:24:03.894Z,45.00
2023-04-23T10:25:03.902Z,45.00
2023-04-23T10:26:03.831Z,50.63
2023-04-23T10:27:03.798Z,61.88
2023-04-23T10:28:03.815Z,73.13
2023-04-23T10:29:03.748Z,78.75
2023-04-23T10:30:06.010Z,90.00
2023-04-23T10:31:03.740Z,95.63
2023-04-23T10:32:03.665Z,101.25
2023-04-23T10:33:03.658Z,95.63
2023-04-23T10:34:03.701Z,90.00
2023-04-23T10:35:03.559Z,90.00
2023-04-23T10:36:03.531Z,84.38
2023-04-23T10:37:03.508Z,78.75
2023-04-23T10:38:03.464Z,78.75
2023-04-23T10:39:03.441Z,84.38
2023-04-23T10:40:03.403Z,95.63
2023-04-23T10:41:03.372Z,112.50
2023-04-23T10:42:03.346Z,118.13
2023-04-23T10:43:03.328Z,118.13
2023-04-23T10:44:03.322Z,129.38
2023-04-23T10:45:13.105Z,135.00
2023-04-23T10:46:03.236Z,135.00
2023-04-23T10:47:03.201Z,135.00
2023-04-23T10:48:03.296Z,129.38
2023-04-23T10:49:03.145Z,129.38
2023-04-23T10:50:03.778Z,123.75
2023-04-23T10:51:28.368Z,129.38
2023-04-23T10:53:03.010Z,135.00
2023-04-23T10:54:02.990Z,135.00
2023-04-23T10:55:03.020Z,135.00
2023-04-23T10:56:02.935Z,129.38
2023-04-23T10:57:02.905Z,129.38
2023-04-23T10:58:03.224Z,129.38
2023-04-23T10:59:02.828Z,123.75
2023-04-23T11:00:02.795Z,123.75
2023-04-23T11:01:02.792Z,112.50
2023-04-23T11:02:02.768Z,101.25
2023-04-23T11:03:02.817Z,95.63
2023-04-23T11:04:02.860Z,84.38
2023-04-23T11:05:03.708Z,78.75
2023-04-23T11:06:03.966Z,84.38
2023-04-23T11:07:05.497Z,90.00
2023-04-23T11:08:11.075Z,95.63
2023-04-23T11:09:18.915Z,101.25
2023-04-23T11:10:03.914Z,101.25
2023-04-23T11:11:02.499Z,101.25
2023-04-23T11:12:02.443Z,101.25
2023-04-23T11:13:02.422Z,101.25
2023-04-23T11:14:02.376Z,106.88
2023-04-23T11:15:02.347Z,118.13
2023-04-23T11:16:02.335Z,112.50
2023-04-23T11:17:02.302Z,118.13
2023-04-23T11:18:02.351Z,129.38
2023-04-23T11:19:02.227Z,135.00
2023-04-23T11:20:02.211Z,140.63
2023-04-23T11:21:02.167Z,151.88
2023-04-23T11:22:02.294Z,157.50
2023-04-23T11:23:02.108Z,151.88
2023-04-23T11:24:02.092Z,151.88
2023-04-23T11:25:02.061Z,146.25
2023-04-23T11:26:02.019Z,140.63
2023-04-23T11:27:01.978Z,146.25
2023-04-23T11:28:01.959Z,157.50
2023-04-23T11:29:01.933Z,168.75
2023-04-23T11:30:01.932Z,180.00
2023-04-23T11:31:01.863Z,191.25
2023-04-23T11:32:03.491Z,208.13
2023-04-23T11:33:02.341Z,208.13
2023-04-23T11:34:01.792Z,202.50
2023-04-23T11:35:01.758Z,202.50
2023-04-23T11:36:01.718Z,253.13
2023-04-23T11:37:01.703Z,219.38
2023-04-23T11:38:01.676Z,185.63
2023-04-23T11:39:01.626Z,174.38
2023-04-23T11:40:01.600Z,174.38
2023-04-23T11:41:01.575Z,163.13
2023-04-23T11:42:01.542Z,180.00
2023-04-23T11:43:01.511Z,191.25
2023-04-23T11:44:01.483Z,202.50
2023-04-23T11:45:01.467Z,230.63
2023-04-23T11:46:01.454Z,247.50
2023-04-23T11:47:01.415Z,241.88
2023-04-23T11:48:01.437Z,247.50
2023-04-23T11:49:01.338Z,247.50
2023-04-23T11:50:01.311Z,236.25
2023-04-23T11:51:01.280Z,236.25
2023-04-23T11:52:01.252Z,264.38
2023-04-23T11:53:01.223Z,258.75
2023-04-23T11:54:01.200Z,247.50
2023-04-23T11:55:01.160Z,236.25
2023-04-23T11:56:01.148Z,286.88
2023-04-23T11:57:01.108Z,315.00
2023-04-23T11:58:01.079Z,258.75
2023-04-23T11:59:01.051Z,241.88
2023-04-23T12:00:01.026Z,270.00
2023-04-23T12:01:00.995Z,275.63
2023-04-23T12:02:01.013Z,292.50
2023-04-23T12:03:01.389Z,337.50
2023-04-23T12:04:01.224Z,343.13
2023-04-23T12:05:00.920Z,348.75
2023-04-23T12:06:00.865Z,360.00
2023-04-23T12:07:00.870Z,376.88
2023-04-23T12:08:00.798Z,281.25
2023-04-23T12:09:00.761Z,331.88
2023-04-23T12:10:00.756Z,331.88
2023-04-23T12:11:00.714Z,275.63
2023-04-23T12:12:00.694Z,241.88
2023-04-23T12:13:00.648Z,236.25
2023-04-23T12:14:00.625Z,236.25
2023-04-23T12:15:00.595Z,270.00
2023-04-23T12:16:00.595Z,292.50
2023-04-23T12:17:00.562Z,275.63
2023-04-23T12:18:00.579Z,225.00
2023-04-23T12:19:00.496Z,196.88
2023-04-23T12:20:00.466Z,174.38
2023-04-23T12:21:00.439Z,191.25
2023-04-23T12:22:00.412Z,196.88
2023-04-23T12:23:00.375Z,202.50
2023-04-23T12:24:00.361Z,196.88
2023-04-23T12:25:00.333Z,185.63
2023-04-23T12:26:00.302Z,202.50
2023-04-23T12:27:00.308Z,219.38
2023-04-23T12:28:00.272Z,236.25
2023-04-23T12:29:00.233Z,253.13
2023-04-23T12:30:00.228Z,286.88
2023-04-23T12:31:00.195Z,326.25
2023-04-23T12:32:00.211Z,270.00
2023-04-23T12:33:00.157Z,275.63
2023-04-23T12:34:00.092Z,241.88
2023-04-23T12:35:00.065Z,230.63
2023-04-23T12:36:00.068Z,241.88
2023-04-23T12:37:00.002Z,241.88
2023-04-23T12:37:59.966Z,191.25
2023-04-23T12:38:59.973Z,185.63
2023-04-23T12:39:59.911Z,202.50
2023-04-23T12:40:59.890Z,270.00
2023-04-23T12:41:59.854Z,382.50
2023-04-23T12:42:59.831Z,433.13
2023-04-23T12:43:59.808Z,275.63
2023-04-23T12:44:59.772Z,253.13
2023-04-23T12:45:59.748Z,213.75
2023-04-23T12:46:59.846Z,236.25
2023-04-23T12:47:59.840Z,180.00
2023-04-23T12:48:59.671Z,146.25
2023-04-23T12:49:59.635Z,129.38
2023-04-23T12:50:59.606Z,118.13
2023-04-23T12:51:59.580Z,112.50
2023-04-23T12:52:59.560Z,106.88
2023-04-23T12:53:59.523Z,106.88
2023-04-23T12:54:59.495Z,101.25
2023-04-23T12:55:59.474Z,95.63
2023-04-23T12:56:59.446Z,90.00
2023-04-23T12:57:59.427Z,90.00